createdAt,value
2019-04-26T00:00:13.884Z,41.59
2019-04-26T00:05:44.046Z,41.54
2019-04-26T00:08:13.690Z,42.03
2019-04-26T00:10:47.020Z,41.69
2019-04-26T00:13:32.600Z,41.98
2019-04-26T00:16:03.088Z,42.46
2019-04-26T00:18:31.554Z,43.26
2019-04-26T00:21:00.226Z,42.16
2019-04-26T00:23:28.859Z,43.84
2019-04-26T00:25:57.571Z,43.37
2019-04-26T00:28:26.022Z,44.23
2019-04-26T00:30:54.569Z,43.26
2019-04-26T00:33:23.037Z,43.31
2019-04-26T00:35:51.539Z,44.00
2019-04-26T00:38:20.427Z,44.92
2019-04-26T00:40:50.224Z,44.37
2019-04-26T00:43:18.708Z,43.77
2019-04-26T00:45:47.272Z,44.64
2019-04-26T00:48:17.178Z,46.11
2019-04-26T00:50:47.096Z,45.41
2019-04-26T00:53:17.593Z,44.93
2019-04-26T00:55:47.140Z,45.21
2019-04-26T00:58:16.447Z,45.30
2019-04-26T01:00:45.373Z,46.88
2019-04-26T01:03:15.218Z,45.55
2019-04-26T01:05:43.876Z,45.54
2019-04-26T01:08:12.343Z,47.36
2019-04-26T01:10:40.876Z,45.79
2019-04-26T01:13:09.578Z,45.98
2019-04-26T01:15:38.059Z,46.38
2019-04-26T01:18:06.542Z,46.88
2019-04-26T01:20:36.991Z,46.08
2019-04-26T01:23:08.675Z,46.98
2019-04-26T01:25:46.264Z,48.54
2019-04-26T01:28:18.486Z,48.14
2019-04-26T01:30:48.808Z,47.33
2019-04-26T01:33:18.719Z,48.76
2019-04-26T01:35:48.160Z,46.94
2019-04-26T01:38:17.169Z,49.11
2019-04-26T01:40:47.387Z,48.52
2019-04-26T01:43:24.394Z,47.80
2019-04-26T01:46:02.527Z,48.46
2019-04-26T01:48:46.769Z,48.92
2019-04-26T01:51:18.322Z,49.44
2019-04-26T01:53:49.977Z,48.53
2019-04-26T01:56:22.414Z,48.53
2019-04-26T01:58:51.961Z,49.87
2019-04-26T02:01:27.890Z,49.64
2019-04-26T02:03:56.487Z,49.75
2019-04-26T02:06:30.670Z,49.93
2019-04-26T02:08:55.506Z,49.55
2019-04-26T02:11:25.032Z,50.15
2019-04-26T02:13:53.906Z,48.93
2019-04-26T02:16:23.630Z,50.30
2019-04-26T02:18:52.222Z,50.65
2019-04-26T02:21:26.405Z,51.12
2019-04-26T02:24:00.216Z,51.56
2019-04-26T02:26:32.919Z,51.76
2019-04-26T02:29:03.915Z,52.86
2019-04-26T02:31:33.718Z,52.38
2019-04-26T02:34:05.193Z,51.29
2019-04-26T02:36:55.150Z,52.41
2019-04-26T02:39:14.736Z,51.69
2019-04-26T02:41:43.825Z,53.61
2019-04-26T02:44:13.950Z,53.21
2019-04-26T02:46:47.752Z,51.86
2019-04-26T02:49:24.539Z,51.80
2019-04-26T02:52:12.564Z,54.07
2019-04-26T02:54:46.792Z,54.04
2019-04-26T02:57:24.277Z,54.56
2019-04-26T02:59:55.793Z,52.80
2019-04-26T03:02:25.604Z,52.97
2019-04-26T03:04:57.160Z,54.86
2019-04-26T03:07:33.413Z,52.93
2019-04-26T03:10:03.234Z,56.04
2019-04-26T03:12:36.125Z,54.63
2019-04-26T03:15:13.704Z,54.23
2019-04-26T03:17:56.890Z,53.43
2019-04-26T03:20:34.945Z,54.62
2019-04-26T03:23:10.343Z,54.12
2019-04-26T03:25:42.293Z,54.35
2019-04-26T03:28:13.913Z,53.84
2019-04-26T03:30:54.618Z,55.53
2019-04-26T03:33:39.838Z,54.26
2019-04-26T03:36:25.092Z,55.56
2019-04-26T03:39:09.321Z,57.41
2019-04-26T03:42:14.479Z,57.35
2019-04-26T03:45:02.717Z,55.17
2019-04-26T03:47:37.939Z,56.41
2019-04-26T03:50:28.224Z,58.87
2019-04-26T03:53:00.006Z,56.13
2019-04-26T03:55:40.266Z,57.59
2019-04-26T03:58:28.649Z,57.46
2019-04-26T04:01:01.143Z,57.14
2019-04-26T04:03:55.428Z,56.30
2019-04-26T04:06:28.597Z,58.77
2019-04-26T04:09:08.225Z,59.13
2019-04-26T04:11:50.005Z,58.27
2019-04-26T04:14:21.769Z,60.39
2019-04-26T04:17:07.066Z,57.95
2019-04-26T04:20:06.291Z,59.15
2019-04-26T04:22:42.927Z,58.34
2019-04-26T04:25:17.418Z,58.49
2019-04-26T04:27:54.988Z,57.80
2019-04-26T04:30:45.877Z,59.32
2019-04-26T04:33:30.035Z,59.58
2019-04-26T04:36:01.582Z,58.64
2019-04-26T04:38:34.077Z,60.44
2019-04-26T04:41:13.193Z,58.73
2019-04-26T04:43:58.032Z,59.86
2019-04-26T04:46:39.855Z,59.07
2019-04-26T04:49:28.301Z,58.97
2019-04-26T04:52:17.877Z,60.12
2019-04-26T04:55:06.734Z,60.76
2019-04-26T04:58:06.625Z,59.25
2019-04-26T05:01:15.704Z,58.85
2019-04-26T05:03:53.226Z,59.76
2019-04-26T05:06:29.385Z,59.51
2019-04-26T05:09:12.948Z,60.76
2019-04-26T05:12:02.362Z,61.30
2019-04-26T05:14:54.277Z,59.74
2019-04-26T05:17:25.949Z,59.92
2019-04-26T05:20:03.072Z,60.61
2019-04-26T05:22:43.464Z,59.47
2019-04-26T05:25:48.065Z,60.30
2019-04-26T05:28:37.893Z,59.82
2019-04-26T05:31:19.623Z,58.68
2019-04-26T05:33:57.285Z,59.93
2019-04-26T05:36:34.820Z,59.90
2019-04-26T05:39:12.186Z,58.08
2019-04-26T05:42:18.938Z,57.99
2019-04-26T05:45:31.999Z,57.85
2019-04-26T05:48:11.968Z,57.61
2019-04-26T05:51:05.503Z,58.49
2019-04-26T05:54:01.446Z,58.64
2019-04-26T05:56:40.795Z,57.12
2019-04-26T05:59:24.073Z,57.45
2019-04-26T06:02:16.870Z,57.27
2019-04-26T06:08:12.936Z,57.15
2019-04-26T06:10:44.513Z,57.11
2019-04-26T06:13:20.799Z,56.93
2019-04-26T06:16:16.463Z,56.64
2019-04-26T06:19:27.634Z,56.58
2019-04-26T06:22:10.983Z,55.59
2019-04-26T06:24:56.412Z,55.58
2019-04-26T06:27:54.471Z,55.32
2019-04-26T06:30:29.252Z,54.71
2019-04-26T06:33:15.744Z,54.32
2019-04-26T06:35:47.520Z,53.98
2019-04-26T06:38:54.560Z,53.58
2019-04-26T06:42:05.574Z,52.66
2019-04-26T06:44:56.280Z,53.04
2019-04-26T06:47:44.241Z,51.71
2019-04-26T06:50:23.251Z,51.56
2019-04-26T06:53:23.755Z,50.61
2019-04-26T06:56:02.988Z,50.93
2019-04-26T06:59:02.088Z,50.23
2019-04-26T07:01:33.616Z,50.76
2019-04-26T07:04:10.827Z,47.40
2019-04-26T07:07:13.910Z,47.40
2019-04-26T07:09:51.409Z,48.58
2019-04-26T07:12:27.641Z,48.54
2019-04-26T07:15:08.073Z,47.41
2019-04-26T07:17:42.284Z,47.84
2019-04-26T07:20:26.954Z,47.23
2019-04-26T07:23:24.438Z,47.28
2019-04-26T07:26:18.520Z,47.47
2019-04-26T07:29:06.972Z,47.11
2019-04-26T07:32:13.163Z,47.44
2019-04-26T07:34:54.594Z,45.92
2019-04-26T07:38:01.195Z,47.09
2019-04-26T07:40:46.417Z,46.81
2019-04-26T07:43:22.236Z,46.38
2019-04-26T07:46:08.872Z,43.81
2019-04-26T07:49:08.071Z,44.35
2019-04-26T07:52:10.548Z,44.84
2019-04-26T07:54:54.151Z,44.33
2019-04-26T07:57:47.310Z,44.42
2019-04-26T08:00:26.703Z,44.05
2019-04-26T08:03:06.872Z,43.66
2019-04-26T08:05:52.165Z,43.99
2019-04-26T08:08:23.435Z,44.12
2019-04-26T08:10:57.670Z,44.11
2019-04-26T08:13:29.226Z,44.55
2019-04-26T08:16:17.012Z,45.51
2019-04-26T08:18:53.430Z,44.35
2019-04-26T08:21:25.187Z,45.06
2019-04-26T08:23:58.379Z,44.78
2019-04-26T08:26:29.929Z,45.93
2019-04-26T08:29:01.650Z,45.68
2019-04-26T08:31:32.947Z,45.12
2019-04-26T08:34:07.155Z,46.61
2019-04-26T08:36:39.848Z,45.87
2019-04-26T08:39:24.477Z,46.15
2019-04-26T08:41:53.597Z,45.75
2019-04-26T08:44:34.520Z,46.37
2019-04-26T08:47:16.965Z,46.37
2019-04-26T08:49:44.989Z,45.99
2019-04-26T08:52:16.369Z,46.56
2019-04-26T08:54:47.714Z,46.94
2019-04-26T08:57:17.672Z,46.11
2019-04-26T08:59:48.593Z,45.97
2019-04-26T09:02:38.538Z,45.68
2019-04-26T09:05:20.686Z,44.56
2019-04-26T09:07:53.379Z,45.15
2019-04-26T09:10:24.924Z,44.29
2019-04-26T09:12:56.410Z,44.91
2019-04-26T09:15:27.928Z,44.45
2019-04-26T09:17:56.439Z,43.60
2019-04-26T09:20:29.611Z,43.42
2019-04-26T09:23:05.942Z,43.69
2019-04-26T09:25:41.865Z,43.64
2019-04-26T09:28:21.189Z,43.43
2019-04-26T09:31:00.567Z,42.41
2019-04-26T09:33:36.007Z,42.86
2019-04-26T09:36:03.883Z,42.87
2019-04-26T09:38:32.428Z,42.22
2019-04-26T09:41:00.902Z,42.79
2019-04-26T09:43:34.007Z,42.40
2019-04-26T09:46:20.334Z,42.35
2019-04-26T09:48:50.471Z,41.81
2019-04-26T09:51:18.952Z,42.08
2019-04-26T09:53:47.494Z,42.01
2019-04-26T09:56:15.981Z,42.33
2019-04-26T09:58:44.490Z,42.02
2019-04-26T10:01:13.046Z,42.46
2019-04-26T10:03:41.525Z,42.62
2019-04-26T10:06:10.111Z,42.13
2019-04-26T10:08:38.640Z,42.40
2019-04-26T10:11:09.623Z,41.88
2019-04-26T10:16:58.083Z,39.88
2019-04-26T10:19:33.904Z,38.50
2019-04-26T10:22:02.464Z,38.85
2019-04-26T10:24:30.950Z,37.95
2019-04-26T10:27:03.298Z,37.48
2019-04-26T10:29:29.643Z,36.52
2019-04-26T10:31:58.131Z,34.88
2019-04-26T10:34:26.610Z,35.31
2019-04-26T10:36:56.931Z,34.89
2019-04-26T10:39:28.562Z,34.05
2019-04-26T10:41:55.688Z,32.86
2019-04-26T10:44:24.176Z,33.12
2019-04-26T10:46:55.629Z,32.26
2019-04-26T10:49:39.945Z,33.73
2019-04-26T10:52:15.584Z,33.47
2019-04-26T10:54:46.015Z,33.20
2019-04-26T10:57:24.639Z,33.58
2019-04-26T10:59:54.765Z,33.28
2019-04-26T11:02:23.348Z,32.40
2019-04-26T11:04:52.338Z,32.66
2019-04-26T11:07:20.871Z,32.48
2019-04-26T11:09:49.344Z,33.20
2019-04-26T11:12:18.093Z,33.67
2019-04-26T11:14:46.568Z,32.94
2019-04-26T11:17:17.590Z,34.42
2019-04-26T11:19:45.889Z,33.80
2019-04-26T11:22:14.492Z,35.72
2019-04-26T11:24:42.971Z,35.21
2019-04-26T11:27:11.510Z,35.31
2019-04-26T11:29:39.960Z,35.20
2019-04-26T11:32:09.012Z,35.03
2019-04-26T11:34:37.495Z,35.14
2019-04-26T11:37:06.324Z,35.37
2019-04-26T11:39:36.526Z,36.01
2019-04-26T11:42:07.990Z,36.04
2019-04-26T11:44:35.365Z,36.43
2019-04-26T11:47:07.517Z,36.75
2019-04-26T11:49:37.408Z,36.71
2019-04-26T11:52:04.915Z,37.48
2019-04-26T11:54:33.370Z,38.07
2019-04-26T11:57:01.879Z,37.10
2019-04-26T11:59:31.674Z,37.54
2019-04-26T12:02:00.435Z,37.78
2019-04-26T12:04:49.472Z,37.63
2019-04-26T12:07:20.628Z,39.06
2019-04-26T12:09:53.440Z,39.02
2019-04-26T12:12:21.940Z,40.04
2019-04-26T12:14:50.423Z,38.21
2019-04-26T12:17:18.910Z,38.93
2019-04-26T12:19:48.280Z,38.58
2019-04-26T12:22:17.572Z,38.50
2019-04-26T12:24:46.070Z,38.33
2019-04-26T12:27:14.888Z,38.43
2019-04-26T12:29:44.128Z,38.41
2019-04-26T12:32:13.606Z,38.64
2019-04-26T12:34:42.120Z,38.90
2019-04-26T12:37:12.610Z,38.28
2019-04-26T12:39:40.853Z,38.28
2019-04-26T12:42:12.380Z,37.72
2019-04-26T12:44:44.319Z,38.40
2019-04-26T12:47:14.425Z,38.40
2019-04-26T12:49:42.925Z,38.30
2019-04-26T12:52:11.472Z,38.89
2019-04-26T12:54:43.107Z,38.52
2019-04-26T12:57:10.156Z,38.67
2019-04-26T12:59:44.479Z,39.42
2019-04-26T13:02:08.916Z,40.07
2019-04-26T13:04:40.583Z,40.66
2019-04-26T13:07:22.674Z,41.16
2019-04-26T13:09:41.122Z,40.93
2019-04-26T13:12:16.912Z,40.53
2019-04-26T13:14:55.962Z,40.36
2019-04-26T13:17:26.064Z,40.21
2019-04-26T13:19:55.476Z,40.10
2019-04-26T13:22:24.157Z,40.10
2019-04-26T13:24:52.653Z,40.21
2019-04-26T13:27:21.117Z,40.60
2019-04-26T13:30:01.874Z,40.45
2019-04-26T13:32:19.803Z,40.44
2019-04-26T13:34:48.291Z,40.95
2019-04-26T13:37:16.773Z,41.19
2019-04-26T13:39:45.283Z,41.72
2019-04-26T13:42:17.550Z,41.60
2019-04-26T13:44:51.685Z,42.08
2019-04-26T13:47:33.722Z,41.56
2019-04-26T13:50:03.856Z,41.40
2019-04-26T13:52:32.357Z,41.47
2019-04-26T13:55:00.855Z,41.62
2019-04-26T13:57:29.321Z,40.89
2019-04-26T13:59:57.816Z,40.62
2019-04-26T14:02:26.437Z,40.62
2019-04-26T14:04:54.943Z,40.58
2019-04-26T14:07:24.474Z,40.53
2019-04-26T14:09:53.638Z,40.51
2019-04-26T14:12:22.100Z,40.51
2019-04-26T14:14:50.585Z,40.59
2019-04-26T14:17:19.063Z,40.82
2019-04-26T14:19:49.477Z,40.49
2019-04-26T14:22:19.371Z,41.32
2019-04-26T14:24:58.629Z,40.72
2019-04-26T14:27:28.834Z,41.06
2019-04-26T14:29:57.331Z,41.76
2019-04-26T14:32:25.894Z,41.32
2019-04-26T14:34:54.366Z,41.16
2019-04-26T14:37:22.860Z,41.87
2019-04-26T14:39:55.148Z,41.66
2019-04-26T14:42:32.967Z,41.38
2019-04-26T14:44:51.783Z,41.52
2019-04-26T14:47:20.275Z,41.61
2019-04-26T14:49:48.757Z,42.12
2019-04-26T14:52:17.281Z,42.23
2019-04-26T14:54:47.302Z,41.96
2019-04-26T14:57:22.155Z,42.10
2019-04-26T14:59:56.836Z,42.17
2019-04-26T15:02:47.148Z,42.14
2019-04-26T15:05:13.939Z,41.89
2019-04-26T15:07:49.514Z,42.64
2019-04-26T15:10:13.961Z,42.17
2019-04-26T15:12:46.939Z,42.25
2019-04-26T15:15:12.964Z,42.27
2019-04-26T15:17:42.266Z,42.30
2019-04-26T15:20:12.618Z,41.96
2019-04-26T15:22:42.919Z,41.88
2019-04-26T15:25:12.760Z,41.75
2019-04-26T15:27:42.106Z,41.83
2019-04-26T15:30:13.421Z,41.81
2019-04-26T15:32:42.657Z,41.73
2019-04-26T15:35:15.943Z,41.85
2019-04-26T15:37:42.278Z,41.97
2019-04-26T15:40:13.604Z,42.05
2019-04-26T15:43:01.357Z,41.82
2019-04-26T15:45:32.611Z,41.91
2019-04-26T15:48:20.175Z,42.14
2019-04-26T15:50:52.031Z,42.21
2019-04-26T15:53:21.397Z,41.90
2019-04-26T15:55:50.342Z,41.93
2019-04-26T15:58:18.854Z,42.27
2019-04-26T16:00:47.315Z,42.40
2019-04-26T16:03:15.800Z,42.45
2019-04-26T16:05:44.276Z,42.55
2019-04-26T16:08:13.106Z,42.69
2019-04-26T16:10:43.030Z,42.70
2019-04-26T16:13:21.391Z,42.96
2019-04-26T16:15:44.759Z,43.59
2019-04-26T16:18:16.894Z,43.15
2019-04-26T16:20:44.377Z,43.82
2019-04-26T16:23:13.424Z,43.34
2019-04-26T16:25:42.829Z,43.96
2019-04-26T16:28:30.651Z,44.81
2019-04-26T16:31:11.048Z,44.17
2019-04-26T16:33:40.422Z,44.21
2019-04-26T16:36:08.921Z,44.34
2019-04-26T16:38:38.337Z,44.94
2019-04-26T16:41:07.650Z,44.79
2019-04-26T16:43:40.509Z,44.92
2019-04-26T16:46:07.552Z,45.29
2019-04-26T16:48:36.051Z,45.76
2019-04-26T16:51:08.596Z,45.62
2019-04-26T16:53:46.255Z,45.70
2019-04-26T16:56:05.131Z,45.52
2019-04-26T16:58:38.176Z,46.24
2019-04-26T17:01:04.666Z,45.95
2019-04-26T17:03:38.076Z,45.96
2019-04-26T17:06:10.056Z,46.42
2019-04-26T17:08:34.604Z,46.14
2019-04-26T17:11:03.167Z,46.61
2019-04-26T17:13:34.733Z,47.01
2019-04-26T17:16:02.292Z,46.50
2019-04-26T17:18:32.343Z,47.01
2019-04-26T17:21:02.563Z,47.80
2019-04-26T17:23:41.351Z,48.42
2019-04-26T17:26:13.245Z,47.74
2019-04-26T17:28:42.949Z,48.44
2019-04-26T17:31:12.476Z,49.19
2019-04-26T17:33:41.025Z,49.05
2019-04-26T17:36:11.329Z,48.67
2019-04-26T17:38:41.949Z,49.50
2019-04-26T17:41:10.899Z,48.88
2019-04-26T17:43:46.597Z,49.18
2019-04-26T17:46:14.304Z,50.49
2019-04-26T17:48:40.870Z,49.60
2019-04-26T17:51:18.438Z,50.83
2019-04-26T17:53:40.119Z,51.10
2019-04-26T17:56:10.829Z,51.33
2019-04-26T17:58:51.570Z,51.57
2019-04-26T18:01:09.134Z,51.46
2019-04-26T18:03:37.701Z,52.05
2019-04-26T18:06:09.659Z,51.59
2019-04-26T18:08:45.222Z,52.95
2019-04-26T18:11:06.756Z,52.50
2019-04-26T18:13:35.229Z,53.75
2019-04-26T18:16:03.817Z,53.32
2019-04-26T18:18:54.359Z,52.87
2019-04-26T18:21:38.946Z,54.06
2019-04-26T18:24:07.412Z,54.32
2019-04-26T18:26:35.911Z,52.90
2019-04-26T18:29:04.724Z,54.79
2019-04-26T18:31:37.218Z,54.45
2019-04-26T18:34:05.725Z,54.94
2019-04-26T18:36:34.221Z,54.51
2019-04-26T18:39:03.908Z,54.62
2019-04-26T18:41:33.969Z,55.97
2019-04-26T18:44:03.067Z,54.69
2019-04-26T18:46:35.843Z,56.59
2019-04-26T18:49:04.481Z,56.10
2019-04-26T18:51:33.457Z,54.88
2019-04-26T18:54:09.210Z,55.09
2019-04-26T18:56:40.530Z,56.23
2019-04-26T18:59:11.663Z,55.26
2019-04-26T19:01:40.884Z,56.08
2019-04-26T19:04:12.751Z,56.16
2019-04-26T19:06:42.326Z,55.60
2019-04-26T19:09:09.554Z,55.28
2019-04-26T19:11:42.084Z,55.78
2019-04-26T19:14:13.468Z,55.61
2019-04-26T19:16:46.425Z,56.46
2019-04-26T19:19:22.747Z,55.88
2019-04-26T19:21:54.721Z,56.82
2019-04-26T19:24:23.271Z,57.46
2019-04-26T19:26:51.764Z,56.12
2019-04-26T19:29:27.052Z,56.68
2019-04-26T19:31:52.196Z,56.75
2019-04-26T19:34:21.873Z,57.52
2019-04-26T19:36:52.410Z,57.19
2019-04-26T19:39:31.636Z,57.32
2019-04-26T19:41:53.639Z,58.09
2019-04-26T19:44:24.070Z,58.04
2019-04-26T19:47:07.549Z,57.79
2019-04-26T19:49:49.261Z,57.48
2019-04-26T19:52:19.431Z,59.12
2019-04-26T19:55:13.287Z,58.20
2019-04-26T19:57:43.420Z,57.29
2019-04-26T20:00:12.535Z,58.05
2019-04-26T20:02:42.036Z,58.13
2019-04-26T20:05:11.879Z,59.56
2019-04-26T20:07:41.612Z,60.02
2019-04-26T20:10:10.400Z,58.40
2019-04-26T20:12:38.892Z,59.03
2019-04-26T20:15:08.447Z,58.54
2019-04-26T20:17:36.911Z,60.12
2019-04-26T20:20:16.935Z,60.76
2019-04-26T20:22:35.973Z,59.25
2019-04-26T20:25:05.483Z,60.43
2019-04-26T20:27:33.963Z,60.93
2019-04-26T20:30:04.283Z,60.50
2019-04-26T20:32:34.367Z,60.11
2019-04-26T20:35:07.274Z,60.48
2019-04-26T20:37:35.743Z,61.51
2019-04-26T20:40:18.657Z,61.17
2019-04-26T20:42:37.261Z,60.89
2019-04-26T20:45:08.486Z,61.44
2019-04-26T20:47:37.891Z,61.21
2019-04-26T20:50:07.733Z,61.97
2019-04-26T20:52:36.210Z,61.60
2019-04-26T20:55:05.956Z,60.76
2019-04-26T20:57:34.620Z,61.21
2019-04-26T21:00:05.413Z,60.45
2019-04-26T21:02:34.443Z,61.00
2019-04-26T21:05:06.170Z,61.14
2019-04-26T21:07:33.626Z,60.66
2019-04-26T21:10:02.504Z,61.07
2019-04-26T21:12:31.463Z,62.18
2019-04-26T21:15:02.346Z,61.74
2019-04-26T21:17:32.825Z,60.63
2019-04-26T21:20:02.286Z,62.22
2019-04-26T21:22:31.768Z,62.30
2019-04-26T21:25:05.063Z,61.95
2019-04-26T21:27:44.108Z,61.94
2019-04-26T21:33:06.559Z,64.14
2019-04-26T21:35:40.016Z,64.05
2019-04-26T21:38:10.634Z,63.90
2019-04-26T21:40:41.010Z,65.82
2019-04-26T21:43:09.506Z,63.95
2019-04-26T21:45:38.168Z,63.65
2019-04-26T21:48:07.084Z,63.52
2019-04-26T21:50:39.078Z,65.25
2019-04-26T21:53:07.087Z,65.26
2019-04-26T21:55:38.789Z,64.32
2019-04-26T21:58:06.110Z,63.92
2019-04-26T22:00:36.307Z,63.99
2019-04-26T22:03:07.939Z,67.16
2019-04-26T22:05:35.322Z,66.08
2019-04-26T22:08:03.922Z,66.02
2019-04-26T22:10:39.619Z,68.65
2019-04-26T22:13:08.859Z,69.98
2019-04-26T22:18:50.590Z,74.32
2019-04-26T22:21:29.967Z,70.30
2019-04-26T22:24:13.244Z,72.36
2019-04-26T22:26:46.904Z,72.17
2019-04-26T22:29:16.631Z,79.37
2019-04-26T22:31:42.841Z,78.44
2019-04-26T22:34:12.829Z,78.02
2019-04-26T22:36:43.691Z,79.81
2019-04-26T22:39:17.283Z,78.98
2019-04-26T22:41:45.968Z,78.49
2019-04-26T22:44:24.896Z,76.88
2019-04-26T22:46:58.795Z,78.44
2019-04-26T22:49:26.836Z,80.14
2019-04-26T22:51:55.340Z,82.66
2019-04-26T22:54:24.961Z,82.02
2019-04-26T22:56:53.901Z,80.54
2019-04-26T22:59:22.971Z,79.86
2019-04-26T23:01:53.573Z,85.82
2019-04-26T23:04:26.261Z,80.82
2019-04-26T23:06:56.150Z,81.92
2019-04-26T23:09:23.317Z,80.00
2019-04-26T23:11:59.573Z,81.47
2019-04-26T23:14:48.180Z,83.01
2019-04-26T23:17:20.500Z,83.51
2019-04-26T23:19:54.272Z,83.78
2019-04-26T23:22:26.348Z,83.86
2019-04-26T23:24:54.451Z,85.96
2019-04-26T23:27:22.009Z,84.97
2019-04-26T23:29:56.834Z,85.92
2019-04-26T23:32:23.357Z,85.86
2019-04-26T23:34:53.517Z,85.20
2019-04-26T23:37:25.905Z,86.67
2019-04-26T23:39:53.626Z,85.65
2019-04-26T23:42:23.304Z,86.31
2019-04-26T23:44:52.444Z,87.18
2019-04-26T23:47:23.231Z,86.65
2019-04-26T23:49:53.851Z,87.98
2019-04-26T23:52:23.019Z,87.54
2019-04-26T23:54:53.006Z,87.24
2019-04-26T23:57:21.611Z,86.34
2019-04-26T23:59:51.163Z,87.87
